createdAt,value
2017-10-18T00:00:12.065Z,12.27
2017-10-18T00:02:38.360Z,12.25
2017-10-18T00:05:05.391Z,12.27
2017-10-18T00:07:31.670Z,12.30
2017-10-18T00:09:57.941Z,12.25
2017-10-18T00:12:24.275Z,12.19
2017-10-18T00:14:50.557Z,12.22
2017-10-18T00:17:16.847Z,12.18
2017-10-18T00:19:44.131Z,12.29
2017-10-18T00:22:10.390Z,12.19
2017-10-18T00:24:36.689Z,12.17
2017-10-18T00:27:02.988Z,12.10
2017-10-18T00:29:29.272Z,12.60
2017-10-18T00:31:55.588Z,12.38
2017-10-18T00:34:21.881Z,12.15
2017-10-18T00:36:48.180Z,12.10
2017-10-18T00:39:14.493Z,12.38
2017-10-18T00:41:40.806Z,12.20
2017-10-18T00:44:07.136Z,12.02
2017-10-18T00:46:33.671Z,11.97
2017-10-18T00:48:59.983Z,11.97
2017-10-18T00:51:26.289Z,11.95
2017-10-18T00:53:52.648Z,11.93
2017-10-18T00:56:19.674Z,11.89
2017-10-18T00:58:46.708Z,11.86
2017-10-18T01:01:13.014Z,11.90
2017-10-18T01:03:39.324Z,11.89
2017-10-18T01:06:05.633Z,11.84
2017-10-18T01:08:31.931Z,12.01
2017-10-18T01:10:58.485Z,11.99
2017-10-18T01:13:25.484Z,11.78
2017-10-18T01:15:51.926Z,11.74
2017-10-18T01:18:18.247Z,12.02
2017-10-18T01:20:44.576Z,12.03
2017-10-18T01:23:10.879Z,11.88
2017-10-18T01:25:37.136Z,11.86
2017-10-18T01:28:03.421Z,11.93
2017-10-18T01:30:29.785Z,11.70
2017-10-18T01:32:56.094Z,11.67
2017-10-18T01:35:22.393Z,11.95
2017-10-18T01:37:49.413Z,11.73
2017-10-18T01:40:15.705Z,11.61
2017-10-18T01:42:42.006Z,11.65
2017-10-18T01:45:09.038Z,11.79
2017-10-18T01:47:35.347Z,11.85
2017-10-18T01:50:01.693Z,11.64
2017-10-18T01:52:28.033Z,11.49
2017-10-18T01:54:55.063Z,11.58
2017-10-18T01:57:21.357Z,11.94
2017-10-18T01:59:47.750Z,11.69
2017-10-18T02:02:14.794Z,11.59
2017-10-18T02:04:41.808Z,11.58
2017-10-18T02:07:08.105Z,11.58
2017-10-18T02:09:34.459Z,11.54
2017-10-18T02:12:00.975Z,11.61
2017-10-18T02:14:27.269Z,11.58
2017-10-18T02:16:54.294Z,11.51
2017-10-18T02:19:20.637Z,11.58
2017-10-18T02:21:47.678Z,11.84
2017-10-18T02:24:13.957Z,11.84
2017-10-18T02:26:40.264Z,11.60
2017-10-18T02:29:07.316Z,11.64
2017-10-18T02:31:33.582Z,11.77
2017-10-18T02:34:00.069Z,11.74
2017-10-18T02:36:27.145Z,11.67
2017-10-18T02:38:53.430Z,11.62
2017-10-18T02:41:19.926Z,11.64
2017-10-18T02:43:46.223Z,11.62
2017-10-18T02:46:12.533Z,11.58
2017-10-18T02:48:39.614Z,11.87
2017-10-18T02:51:05.898Z,11.59
2017-10-18T02:53:32.371Z,11.49
2017-10-18T02:55:58.674Z,11.48
2017-10-18T02:58:25.718Z,11.84
2017-10-18T03:00:53.013Z,11.64
2017-10-18T03:03:19.280Z,11.43
2017-10-18T03:05:45.547Z,11.45
2017-10-18T03:08:11.813Z,11.49
2017-10-18T03:10:38.094Z,11.44
2017-10-18T03:13:05.269Z,11.47
2017-10-18T03:15:31.581Z,11.42
2017-10-18T03:17:57.860Z,11.39
2017-10-18T03:20:24.188Z,11.36
2017-10-18T03:22:50.545Z,11.39
2017-10-18T03:25:16.873Z,11.68
2017-10-18T03:27:43.285Z,11.33
2017-10-18T03:30:09.596Z,11.32
2017-10-18T03:32:35.944Z,11.62
2017-10-18T03:35:02.334Z,11.44
2017-10-18T03:37:28.678Z,11.29
2017-10-18T03:39:55.049Z,11.29
2017-10-18T03:42:21.550Z,11.38
2017-10-18T03:44:47.837Z,11.29
2017-10-18T03:47:14.865Z,11.55
2017-10-18T03:49:41.179Z,11.25
2017-10-18T03:52:07.440Z,11.29
2017-10-18T03:54:34.483Z,11.41
2017-10-18T03:57:01.124Z,11.45
2017-10-18T03:59:28.193Z,11.16
2017-10-18T04:01:54.467Z,11.17
2017-10-18T04:04:20.806Z,11.21
2017-10-18T04:06:47.109Z,11.27
2017-10-18T04:09:13.414Z,11.46
2017-10-18T04:11:39.740Z,11.17
2017-10-18T04:14:06.025Z,10.99
2017-10-18T04:16:32.335Z,11.09
2017-10-18T04:18:58.850Z,11.07
2017-10-18T04:21:25.137Z,10.94
2017-10-18T04:23:51.416Z,10.84
2017-10-18T04:26:17.728Z,11.07
2017-10-18T04:28:44.024Z,10.94
2017-10-18T04:31:10.304Z,10.89
2017-10-18T04:33:36.626Z,10.99
2017-10-18T04:36:02.972Z,11.02
2017-10-18T04:38:29.333Z,10.91
2017-10-18T04:40:55.622Z,10.83
2017-10-18T04:43:21.937Z,10.90
2017-10-18T04:45:48.485Z,10.83
2017-10-18T04:48:14.825Z,10.85
2017-10-18T04:50:41.197Z,10.83
2017-10-18T04:53:07.705Z,10.92
2017-10-18T04:55:33.998Z,10.90
2017-10-18T04:58:00.289Z,10.90
2017-10-18T05:00:26.643Z,10.80
2017-10-18T05:02:54.019Z,10.74
2017-10-18T05:05:20.344Z,10.86
2017-10-18T05:07:46.889Z,10.98
2017-10-18T05:10:13.205Z,10.99
2017-10-18T05:12:39.532Z,11.08
2017-10-18T05:15:06.629Z,11.07
2017-10-18T05:17:32.986Z,11.07
2017-10-18T05:19:59.344Z,11.05
2017-10-18T05:22:25.701Z,10.99
2017-10-18T05:24:51.986Z,11.02
2017-10-18T05:27:19.034Z,10.98
2017-10-18T05:29:46.101Z,11.05
2017-10-18T05:32:12.404Z,11.06
2017-10-18T05:34:38.664Z,11.10
2017-10-18T05:37:04.973Z,11.10
2017-10-18T05:39:32.004Z,11.16
2017-10-18T05:41:58.293Z,11.20
2017-10-18T05:44:24.627Z,11.19
2017-10-18T05:46:50.898Z,11.10
2017-10-18T05:49:17.196Z,11.16
2017-10-18T05:51:43.734Z,11.34
2017-10-18T05:54:11.700Z,11.44
2017-10-18T05:56:38.027Z,11.32
2017-10-18T05:59:04.540Z,11.19
2017-10-18T06:01:30.857Z,11.15
2017-10-18T06:03:57.152Z,11.25
2017-10-18T06:06:23.457Z,11.21
2017-10-18T06:08:49.751Z,11.28
2017-10-18T06:11:16.049Z,11.21
2017-10-18T06:13:43.950Z,11.25
2017-10-18T06:16:10.257Z,11.17
2017-10-18T06:18:37.313Z,11.22
2017-10-18T06:21:04.081Z,11.58
2017-10-18T06:23:30.433Z,11.48
2017-10-18T06:25:56.720Z,11.31
2017-10-18T06:28:23.254Z,11.48
2017-10-18T06:30:49.550Z,11.48
2017-10-18T06:33:15.833Z,11.17
2017-10-18T06:35:42.209Z,11.13
2017-10-18T06:38:08.525Z,11.17
2017-10-18T06:40:34.801Z,11.46
2017-10-18T06:43:01.340Z,11.24
2017-10-18T06:45:27.629Z,11.27
2017-10-18T06:47:53.918Z,11.80
2017-10-18T06:50:20.336Z,11.83
2017-10-18T06:52:46.629Z,11.38
2017-10-18T06:55:12.910Z,11.53
2017-10-18T06:57:39.275Z,11.46
2017-10-18T07:00:05.583Z,11.37
2017-10-18T07:02:31.918Z,11.58
2017-10-18T07:04:58.229Z,11.69
2017-10-18T07:07:24.532Z,11.61
2017-10-18T07:09:51.563Z,11.88
2017-10-18T07:12:18.613Z,11.85
2017-10-18T07:14:45.657Z,11.71
2017-10-18T07:17:12.689Z,11.82
2017-10-18T07:19:39.059Z,12.05
2017-10-18T07:22:05.355Z,11.89
2017-10-18T07:24:31.665Z,11.72
2017-10-18T07:26:58.370Z,11.92
2017-10-18T07:29:24.660Z,11.97
2017-10-18T07:31:50.984Z,11.92
2017-10-18T07:34:17.274Z,11.93
2017-10-18T07:36:43.553Z,12.27
2017-10-18T07:39:10.621Z,12.26
2017-10-18T07:41:37.139Z,12.00
2017-10-18T07:44:04.173Z,12.31
2017-10-18T07:46:30.473Z,12.25
2017-10-18T07:48:56.799Z,12.23
2017-10-18T07:51:23.114Z,12.16
2017-10-18T07:53:49.442Z,12.50
2017-10-18T07:56:15.749Z,12.68
2017-10-18T07:58:42.081Z,12.76
2017-10-18T08:01:08.633Z,12.68
2017-10-18T08:03:34.971Z,12.86
2017-10-18T08:06:01.311Z,12.97
2017-10-18T08:08:27.657Z,13.25
2017-10-18T08:10:53.977Z,12.71
2017-10-18T08:13:21.014Z,12.83
2017-10-18T08:15:47.533Z,12.78
2017-10-18T08:18:13.867Z,12.48
2017-10-18T08:20:40.193Z,12.79
2017-10-18T08:23:06.500Z,12.84
2017-10-18T08:25:39.767Z,13.00
2017-10-18T08:28:06.058Z,12.68
2017-10-18T08:30:32.365Z,12.93
2017-10-18T08:32:58.716Z,13.02
2017-10-18T08:35:25.031Z,13.09
2017-10-18T08:37:51.336Z,13.39
2017-10-18T08:40:18.363Z,13.47
2017-10-18T08:42:44.701Z,13.57
2017-10-18T08:45:11.033Z,13.33
2017-10-18T08:47:37.341Z,13.57
2017-10-18T08:50:03.654Z,13.89
2017-10-18T08:52:29.938Z,13.61
2017-10-18T08:54:56.947Z,13.52
2017-10-18T08:57:23.301Z,13.99
2017-10-18T08:59:49.604Z,14.30
2017-10-18T09:02:15.929Z,14.04
2017-10-18T09:04:42.246Z,14.50
2017-10-18T09:07:08.528Z,14.23
2017-10-18T09:09:35.530Z,14.04
2017-10-18T09:12:01.961Z,14.40
2017-10-18T09:14:28.232Z,14.10
2017-10-18T09:16:55.281Z,14.10
2017-10-18T09:19:22.331Z,14.10
2017-10-18T09:21:49.631Z,14.35
2017-10-18T09:24:15.898Z,14.68
2017-10-18T09:26:42.208Z,14.71
2017-10-18T09:29:08.487Z,15.17
2017-10-18T09:31:35.764Z,15.05
2017-10-18T09:34:02.045Z,15.15
2017-10-18T09:36:28.318Z,15.34
2017-10-18T09:38:54.701Z,15.98
2017-10-18T09:41:20.961Z,15.52
2017-10-18T09:43:47.228Z,15.27
2017-10-18T09:46:13.737Z,15.51
2017-10-18T09:48:40.007Z,15.41
2017-10-18T09:51:06.294Z,15.54
2017-10-18T09:53:32.737Z,15.17
2017-10-18T09:55:58.995Z,14.99
2017-10-18T09:58:25.301Z,14.97
2017-10-18T10:00:51.871Z,15.09
2017-10-18T10:03:18.146Z,15.42
2017-10-18T10:05:44.429Z,15.47
2017-10-18T10:08:10.723Z,15.85
2017-10-18T10:10:36.998Z,16.17
2017-10-18T10:13:03.295Z,16.60
2017-10-18T10:15:29.556Z,15.80
2017-10-18T10:17:55.843Z,15.59
2017-10-18T10:20:22.141Z,15.71
2017-10-18T10:22:48.433Z,16.18
2017-10-18T10:25:14.718Z,16.49
2017-10-18T10:27:41.255Z,16.57
2017-10-18T10:30:07.529Z,16.45
2017-10-18T10:32:33.813Z,15.91
2017-10-18T10:35:00.155Z,15.77
2017-10-18T10:37:26.434Z,15.96
2017-10-18T10:39:53.449Z,15.87
2017-10-18T10:42:19.743Z,16.15
2017-10-18T10:44:46.014Z,16.36
2017-10-18T10:47:12.290Z,16.59
2017-10-18T10:49:38.589Z,16.68
2017-10-18T10:52:05.626Z,16.92
2017-10-18T10:54:31.905Z,16.96
2017-10-18T10:56:58.220Z,16.96
2017-10-18T10:59:25.273Z,17.33
2017-10-18T11:01:51.525Z,16.58
2017-10-18T11:04:17.795Z,16.38
2017-10-18T11:06:44.159Z,16.88
2017-10-18T11:09:10.696Z,17.15
2017-10-18T11:11:37.101Z,17.24
2017-10-18T11:14:04.128Z,17.13
2017-10-18T11:16:30.401Z,17.08
2017-10-18T11:18:56.673Z,17.03
2017-10-18T11:21:22.945Z,17.24
2017-10-18T11:23:49.984Z,17.49
2017-10-18T11:26:16.990Z,17.12
2017-10-18T11:28:43.243Z,17.27
2017-10-18T11:31:09.525Z,17.20
2017-10-18T11:33:35.781Z,17.41
2017-10-18T11:36:02.086Z,17.32
2017-10-18T11:38:28.375Z,17.25
2017-10-18T11:40:54.635Z,17.34
2017-10-18T11:43:20.912Z,17.18
2017-10-18T11:45:47.222Z,16.82
2017-10-18T11:48:13.512Z,16.89
2017-10-18T11:50:40.535Z,16.85
2017-10-18T11:53:07.572Z,16.89
2017-10-18T11:55:34.058Z,17.10
2017-10-18T11:58:00.313Z,17.04
2017-10-18T12:00:26.580Z,17.18
2017-10-18T12:02:53.857Z,17.89
2017-10-18T12:05:20.154Z,18.17
2017-10-18T12:07:46.425Z,18.39
2017-10-18T12:10:12.741Z,18.20
2017-10-18T12:12:39.014Z,18.42
2017-10-18T12:15:05.281Z,18.37
2017-10-18T12:17:32.345Z,17.35
2017-10-18T12:19:59.346Z,17.23
2017-10-18T12:22:25.634Z,17.23
2017-10-18T12:24:51.922Z,17.10
2017-10-18T12:27:18.177Z,17.33
2017-10-18T12:29:45.217Z,17.56
2017-10-18T12:32:12.248Z,17.76
2017-10-18T12:34:38.541Z,17.69
2017-10-18T12:37:04.823Z,17.89
2017-10-18T12:39:31.829Z,17.98
2017-10-18T12:41:59.969Z,17.75
2017-10-18T12:44:26.229Z,17.37
2017-10-18T12:46:52.485Z,17.60
2017-10-18T12:49:19.517Z,17.52
2017-10-18T12:51:46.089Z,17.58
2017-10-18T12:54:12.357Z,17.65
2017-10-18T12:56:38.868Z,17.54
2017-10-18T12:59:05.123Z,17.59
2017-10-18T13:01:31.399Z,17.63
2017-10-18T13:03:58.412Z,17.51
2017-10-18T13:06:24.692Z,17.41
2017-10-18T13:08:50.975Z,17.61
2017-10-18T13:11:17.274Z,17.42
2017-10-18T13:13:43.554Z,17.72
2017-10-18T13:16:10.558Z,17.81
2017-10-18T13:18:36.849Z,17.76
2017-10-18T13:21:03.855Z,17.83
2017-10-18T13:23:30.122Z,17.72
2017-10-18T13:25:57.406Z,17.58
2017-10-18T13:28:23.646Z,17.76
2017-10-18T13:30:49.894Z,17.81
2017-10-18T13:33:17.102Z,17.67
2017-10-18T13:35:43.376Z,17.33
2017-10-18T13:38:09.662Z,17.38
2017-10-18T13:40:36.209Z,17.62
2017-10-18T13:43:02.511Z,17.50
2017-10-18T13:45:28.805Z,17.70
2017-10-18T13:47:55.084Z,17.68
2017-10-18T13:50:21.354Z,17.80
2017-10-18T13:52:47.653Z,17.64
2017-10-18T13:55:13.957Z,17.30
2017-10-18T13:57:40.213Z,17.53
2017-10-18T14:00:06.481Z,17.60
2017-10-18T14:02:32.788Z,17.41
2017-10-18T14:04:59.056Z,17.74
2017-10-18T14:07:26.080Z,17.72
2017-10-18T14:09:52.404Z,17.94
2017-10-18T14:12:18.693Z,17.81
2017-10-18T14:14:44.957Z,17.54
2017-10-18T14:17:11.484Z,17.58
2017-10-18T14:19:37.794Z,17.36
2017-10-18T14:22:04.057Z,17.28
2017-10-18T14:24:30.540Z,17.46
2017-10-18T14:26:56.826Z,17.35
2017-10-18T14:29:23.110Z,17.56
2017-10-18T14:31:49.540Z,17.58
2017-10-18T14:34:15.833Z,17.51
2017-10-18T14:36:42.114Z,17.39
2017-10-18T14:39:08.409Z,17.62
2017-10-18T14:41:35.431Z,17.61
2017-10-18T14:44:01.731Z,17.57
2017-10-18T14:46:28.241Z,17.82
2017-10-18T14:48:54.503Z,17.45
2017-10-18T14:51:20.762Z,16.98
2017-10-18T14:53:48.661Z,17.17
2017-10-18T14:56:14.926Z,17.22
2017-10-18T14:58:41.192Z,17.40
2017-10-18T15:01:08.224Z,17.13
2017-10-18T15:03:34.483Z,17.38
2017-10-18T15:06:00.773Z,17.34
2017-10-18T15:08:27.061Z,17.07
2017-10-18T15:10:53.598Z,16.93
2017-10-18T15:13:19.879Z,17.01
2017-10-18T15:15:46.133Z,17.17
2017-10-18T15:18:12.437Z,16.86
2017-10-18T15:20:38.709Z,17.03
2017-10-18T15:23:04.986Z,16.69
2017-10-18T15:25:31.274Z,17.12
2017-10-18T15:27:58.019Z,16.86
2017-10-18T15:30:24.388Z,16.67
2017-10-18T15:32:50.696Z,16.80
2017-10-18T15:35:16.962Z,17.10
2017-10-18T15:37:43.994Z,16.77
2017-10-18T15:40:10.304Z,16.82
2017-10-18T15:42:36.578Z,17.11
2017-10-18T15:45:03.623Z,16.86
2017-10-18T15:47:30.678Z,16.61
2017-10-18T15:49:57.730Z,16.84
2017-10-18T15:52:24.049Z,16.88
2017-10-18T15:54:51.257Z,16.59
2017-10-18T15:57:17.550Z,16.74
2017-10-18T15:59:43.805Z,16.69
2017-10-18T16:02:10.098Z,16.70
2017-10-18T16:04:36.345Z,16.57
2017-10-18T16:07:02.655Z,16.80
2017-10-18T16:09:29.052Z,16.55
2017-10-18T16:11:55.323Z,16.18
2017-10-18T16:14:21.590Z,16.02
2017-10-18T16:16:48.198Z,15.96
2017-10-18T16:19:14.495Z,15.99
2017-10-18T16:21:41.509Z,15.94
2017-10-18T16:24:08.005Z,16.06
2017-10-18T16:26:34.289Z,15.93
2017-10-18T16:29:00.554Z,15.90
2017-10-18T16:31:26.860Z,15.81
2017-10-18T16:33:53.877Z,15.81
2017-10-18T16:36:20.181Z,15.65
2017-10-18T16:38:46.706Z,15.86
2017-10-18T16:41:12.975Z,15.89
2017-10-18T16:43:39.256Z,15.81
2017-10-18T16:46:05.580Z,15.72
2017-10-18T16:48:31.922Z,15.62
2017-10-18T16:50:58.482Z,15.53
2017-10-18T16:53:25.523Z,15.40
2017-10-18T16:55:51.778Z,15.45
2017-10-18T16:58:18.070Z,15.32
2017-10-18T17:00:44.508Z,15.29
2017-10-18T17:03:10.802Z,15.15
2017-10-18T17:05:37.815Z,15.28
2017-10-18T17:08:04.091Z,15.40
2017-10-18T17:10:30.355Z,15.41
2017-10-18T17:12:56.606Z,15.52
2017-10-18T17:15:22.927Z,15.55
2017-10-18T17:17:49.189Z,15.49
2017-10-18T17:20:16.239Z,15.44
2017-10-18T17:22:43.263Z,15.18
2017-10-18T17:25:09.524Z,15.30
2017-10-18T17:27:36.900Z,15.25
2017-10-18T17:30:03.234Z,15.27
2017-10-18T17:32:29.502Z,15.17
2017-10-18T17:34:55.810Z,15.03
2017-10-18T17:37:22.078Z,15.22
2017-10-18T17:39:49.120Z,15.26
2017-10-18T17:42:15.438Z,15.20
2017-10-18T17:44:41.753Z,15.03
2017-10-18T17:47:08.081Z,15.00
2017-10-18T17:49:34.365Z,14.92
2017-10-18T17:52:00.644Z,14.83
2017-10-18T17:54:27.141Z,14.80
2017-10-18T17:56:53.421Z,14.93
2017-10-18T17:59:19.696Z,14.91
2017-10-18T18:01:46.187Z,15.02
2017-10-18T18:04:12.457Z,15.02
2017-10-18T18:06:38.753Z,14.93
2017-10-18T18:09:05.050Z,14.80
2017-10-18T18:11:31.350Z,14.88
2017-10-18T18:13:57.644Z,15.02
2017-10-18T18:16:24.677Z,15.02
2017-10-18T18:18:50.941Z,14.80
2017-10-18T18:21:17.996Z,14.56
2017-10-18T18:23:44.265Z,14.55
2017-10-18T18:26:10.538Z,14.30
2017-10-18T18:28:37.917Z,14.23
2017-10-18T18:31:04.189Z,14.41
2017-10-18T18:33:30.510Z,14.25
2017-10-18T18:35:57.708Z,14.27
2017-10-18T18:38:24.737Z,13.96
2017-10-18T18:40:51.780Z,14.03
2017-10-18T18:43:18.084Z,13.95
2017-10-18T18:45:44.353Z,13.91
2017-10-18T18:48:11.362Z,13.99
2017-10-18T18:50:37.727Z,14.14
2017-10-18T18:53:04.761Z,14.09
2017-10-18T18:55:31.042Z,14.04
2017-10-18T18:57:57.677Z,14.10
2017-10-18T19:00:23.967Z,14.10
2017-10-18T19:02:51.005Z,14.01
2017-10-18T19:05:17.583Z,13.94
2017-10-18T19:07:44.021Z,14.00
2017-10-18T19:10:10.334Z,13.89
2017-10-18T19:12:36.827Z,13.96
2017-10-18T19:15:03.147Z,13.90
2017-10-18T19:17:29.466Z,13.78
2017-10-18T19:19:55.931Z,13.55
2017-10-18T19:22:23.001Z,13.54
2017-10-18T19:24:50.011Z,13.52
2017-10-18T19:27:16.321Z,13.56
2017-10-18T19:29:42.610Z,13.90
2017-10-18T19:32:09.633Z,13.77
2017-10-18T19:34:35.942Z,13.71
2017-10-18T19:37:02.267Z,13.68
2017-10-18T19:39:29.305Z,13.76
2017-10-18T19:41:55.570Z,13.45
2017-10-18T19:44:22.601Z,13.35
2017-10-18T19:46:48.889Z,13.28
2017-10-18T19:49:15.178Z,13.33
2017-10-18T19:51:42.226Z,13.23
2017-10-18T19:54:09.615Z,13.16
2017-10-18T19:56:35.885Z,13.05
2017-10-18T19:59:02.226Z,13.01
2017-10-18T20:01:28.518Z,12.94
2017-10-18T20:03:54.893Z,13.08
2017-10-18T20:06:21.159Z,12.99
2017-10-18T20:08:47.464Z,12.98
2017-10-18T20:11:14.471Z,12.99
2017-10-18T20:13:40.753Z,13.24
2017-10-18T20:16:07.025Z,13.36
2017-10-18T20:18:34.078Z,13.16
2017-10-18T20:21:00.409Z,13.07
2017-10-18T20:23:26.705Z,13.05
2017-10-18T20:25:53.024Z,13.06
2017-10-18T20:28:19.342Z,13.23
2017-10-18T20:30:46.348Z,13.30
2017-10-18T20:33:12.641Z,13.23
2017-10-18T20:35:39.105Z,13.09
2017-10-18T20:38:05.388Z,13.06
2017-10-18T20:40:32.422Z,13.18
2017-10-18T20:42:59.462Z,13.15
2017-10-18T20:45:26.480Z,13.24
2017-10-18T20:47:52.790Z,13.25
2017-10-18T20:50:19.252Z,13.39
2017-10-18T20:52:45.536Z,13.40
2017-10-18T20:55:11.791Z,13.38
2017-10-18T20:57:38.106Z,13.31
2017-10-18T21:00:04.450Z,13.31
2017-10-18T21:02:30.740Z,13.34
2017-10-18T21:04:57.787Z,13.27
2017-10-18T21:07:24.838Z,13.13
2017-10-18T21:09:51.138Z,13.10
2017-10-18T21:12:17.921Z,13.00
2017-10-18T21:14:44.174Z,13.06
2017-10-18T21:17:10.436Z,13.06
2017-10-18T21:19:36.717Z,13.03
2017-10-18T21:22:02.986Z,13.17
2017-10-18T21:24:29.292Z,13.20
2017-10-18T21:26:56.620Z,13.24
2017-10-18T21:29:22.952Z,13.32
2017-10-18T21:31:49.241Z,13.21
2017-10-18T21:34:17.081Z,13.09
2017-10-18T21:36:43.366Z,13.07
2017-10-18T21:39:09.679Z,13.16
2017-10-18T21:41:36.698Z,13.21
2017-10-18T21:44:03.014Z,13.35
2017-10-18T21:46:29.294Z,13.42
2017-10-18T21:48:55.601Z,13.38
2017-10-18T21:51:22.696Z,13.30
2017-10-18T21:53:48.950Z,13.46
2017-10-18T21:56:15.258Z,13.52
2017-10-18T21:58:41.523Z,13.36
2017-10-18T22:01:07.888Z,13.35
2017-10-18T22:03:34.937Z,13.47
2017-10-18T22:06:02.008Z,13.40
2017-10-18T22:08:28.274Z,13.16
2017-10-18T22:10:54.578Z,13.33
2017-10-18T22:13:20.887Z,13.55
2017-10-18T22:15:47.184Z,13.48
2017-10-18T22:18:14.633Z,13.26
2017-10-18T22:20:40.916Z,13.31
2017-10-18T22:23:07.201Z,13.35
2017-10-18T22:25:34.241Z,12.93
2017-10-18T22:28:00.534Z,12.80
2017-10-18T22:30:27.648Z,12.96
2017-10-18T22:32:54.193Z,12.93
2017-10-18T22:35:20.462Z,12.90
2017-10-18T22:37:46.718Z,12.96
2017-10-18T22:40:14.023Z,12.97
2017-10-18T22:42:40.574Z,12.77
2017-10-18T22:45:06.880Z,12.92
2017-10-18T22:47:33.167Z,13.00
2017-10-18T22:50:00.187Z,13.01
2017-10-18T22:52:26.637Z,13.13
2017-10-18T22:54:52.925Z,13.15
2017-10-18T22:57:19.203Z,12.91
2017-10-18T22:59:46.274Z,12.95
2017-10-18T23:02:12.685Z,13.00
2017-10-18T23:04:39.686Z,13.05
2017-10-18T23:07:06.014Z,13.06
2017-10-18T23:09:32.318Z,13.15
2017-10-18T23:11:58.595Z,13.11
2017-10-18T23:14:24.917Z,13.01
2017-10-18T23:16:51.196Z,13.21
2017-10-18T23:19:18.217Z,13.27
2017-10-18T23:21:44.790Z,13.03
2017-10-18T23:24:11.061Z,13.06
2017-10-18T23:26:37.345Z,12.98
2017-10-18T23:29:03.617Z,13.04
2017-10-18T23:31:29.904Z,13.01
2017-10-18T23:33:56.172Z,13.23
2017-10-18T23:36:22.461Z,13.14
2017-10-18T23:38:48.757Z,12.97
2017-10-18T23:41:15.010Z,12.96
2017-10-18T23:43:42.826Z,12.99
2017-10-18T23:46:09.121Z,12.96
2017-10-18T23:48:35.385Z,13.02
2017-10-18T23:51:01.806Z,12.99
2017-10-18T23:53:28.082Z,13.22
2017-10-18T23:55:55.423Z,12.92
2017-10-18T23:58:22.464Z,12.88
